sensor_id;sensor_type;location;lat;lon;timestamp;P1;durP1;ratioP1;P2;durP2;ratioP2
26181;SDS011;13927;51.534;11.866;2024-01-15T00:00:51;17.95;;;8.80;;
26181;SDS011;13927;51.534;11.866;2024-01-15T00:03:20;15.50;;;7.93;;
26181;SDS011;13927;51.534;11.866;2024-01-15T00:05:48;14.90;;;8.18;;
26181;SDS011;13927;51.534;11.866;2024-01-15T00:08:14;23.58;;;9.25;;
26181;SDS011;13927;51.534;11.866;2024-01-15T00:10:40;17.25;;;8.02;;
26181;SDS011;13927;51.534;11.866;2024-01-15T00:13:06;18.67;;;8.77;;
26181;SDS011;13927;51.534;11.866;2024-01-15T00:15:32;22.27;;;9.40;;
26181;SDS011;13927;51.534;11.866;2024-01-15T00:17:58;18.95;;;8.13;;
26181;SDS011;13927;51.534;11.866;2024-01-15T00:20:24;16.30;;;8.43;;
26181;SDS011;13927;51.534;11.866;2024-01-15T00:22:49;19.58;;;8.95;;
26181;SDS011;13927;51.534;11.866;2024-01-15T00:25:18;18.13;;;9.40;;
26181;SDS011;13927;51.534;11.866;2024-01-15T00:27:44;17.40;;;10.63;;
26181;SDS011;13927;51.534;11.866;2024-01-15T00:30:09;14.80;;;8.20;;
26181;SDS011;13927;51.534;11.866;2024-01-15T00:32:39;19.58;;;9.57;;
26181;SDS011;13927;51.534;11.866;2024-01-15T00:35:05;14.32;;;7.63;;
26181;SDS011;13927;51.534;11.866;2024-01-15T00:37:36;13.80;;;8.10;;
26181;SDS011;13927;51.534;11.866;2024-01-15T00:40:02;20.17;;;9.13;;
26181;SDS011;13927;51.534;11.866;2024-01-15T00:42:29;13.80;;;8.30;;
26181;SDS011;13927;51.534;11.866;2024-01-15T00:44:55;16.17;;;8.45;;
26181;SDS011;13927;51.534;11.866;2024-01-15T00:47:23;18.35;;;8.45;;
26181;SDS011;13927;51.534;11.866;2024-01-15T00:49:49;18.23;;;7.88;;
26181;SDS011;13927;51.534;11.866;2024-01-15T00:52:18;16.67;;;7.50;;
26181;SDS011;13927;51.534;11.866;2024-01-15T00:54:43;14.25;;;7.82;;
26181;SDS011;13927;51.534;11.866;2024-01-15T00:57:09;18.05;;;9.52;;
26181;SDS011;13927;51.534;11.866;2024-01-15T00:59:44;24.77;;;10.65;;
26181;SDS011;13927;51.534;11.866;2024-01-15T01:02:10;16.33;;;8.40;;
26181;SDS011;13927;51.534;11.866;2024-01-15T01:04:35;19.55;;;9.90;;
26181;SDS011;13927;51.534;11.866;2024-01-15T01:07:01;19.17;;;9.50;;
26181;SDS011;13927;51.534;11.866;2024-01-15T01:09:29;21.35;;;9.85;;
26181;SDS011;13927;51.534;11.866;2024-01-15T01:11:58;19.50;;;9.38;;
26181;SDS011;13927;51.534;11.866;2024-01-15T01:14:24;19.20;;;9.70;;
26181;SDS011;13927;51.534;11.866;2024-01-15T01:16:49;19.70;;;9.30;;
26181;SDS011;13927;51.534;11.866;2024-01-15T01:19:15;17.42;;;8.02;;
26181;SDS011;13927;51.534;11.866;2024-01-15T01:21:41;19.38;;;9.13;;
26181;SDS011;13927;51.534;11.866;2024-01-15T01:24:07;21.73;;;9.50;;
26181;SDS011;13927;51.534;11.866;2024-01-15T01:26:36;18.65;;;9.77;;
26181;SDS011;13927;51.534;11.866;2024-01-15T01:29:01;20.13;;;8.77;;
26181;SDS011;13927;51.534;11.866;2024-01-15T01:31:33;15.40;;;9.20;;
26181;SDS011;13927;51.534;11.866;2024-01-15T01:33:58;24.52;;;11.35;;
26181;SDS011;13927;51.534;11.866;2024-01-15T01:36:24;23.90;;;10.77;;
26181;SDS011;13927;51.534;11.866;2024-01-15T01:38:50;17.90;;;9.23;;
26181;SDS011;13927;51.534;11.866;2024-01-15T01:41:16;21.40;;;9.27;;
26181;SDS011;13927;51.534;11.866;2024-01-15T01:43:44;17.73;;;8.50;;
26181;SDS011;13927;51.534;11.866;2024-01-15T01:46:10;19.15;;;10.32;;
26181;SDS011;13927;51.534;11.866;2024-01-15T01:48:39;20.90;;;9.95;;
26181;SDS011;13927;51.534;11.866;2024-01-15T01:51:05;14.85;;;8.18;;
26181;SDS011;13927;51.534;11.866;2024-01-15T01:53:31;19.90;;;9.88;;
26181;SDS011;13927;51.534;11.866;2024-01-15T01:55:58;20.02;;;10.85;;
26181;SDS011;13927;51.534;11.866;2024-01-15T01:58:28;20.58;;;10.32;;
26181;SDS011;13927;51.534;11.866;2024-01-15T02:01:06;24.42;;;10.35;;
26181;SDS011;13927;51.534;11.866;2024-01-15T02:03:32;20.65;;;10.52;;
26181;SDS011;13927;51.534;11.866;2024-01-15T02:05:59;21.55;;;9.70;;
26181;SDS011;13927;51.534;11.866;2024-01-15T02:08:25;21.80;;;9.55;;
26181;SDS011;13927;51.534;11.866;2024-01-15T02:10:51;21.83;;;10.38;;
26181;SDS011;13927;51.534;11.866;2024-01-15T02:13:17;20.83;;;10.02;;
26181;SDS011;13927;51.534;11.866;2024-01-15T02:15:45;24.88;;;10.20;;
26181;SDS011;13927;51.534;11.866;2024-01-15T02:18:10;20.73;;;9.95;;
26181;SDS011;13927;51.534;11.866;2024-01-15T02:20:36;23.67;;;10.57;;
26181;SDS011;13927;51.534;11.866;2024-01-15T02:23:07;23.30;;;10.90;;
26181;SDS011;13927;51.534;11.866;2024-01-15T02:25:40;25.25;;;10.40;;
26181;SDS011;13927;51.534;11.866;2024-01-15T02:28:10;22.83;;;10.88;;
26181;SDS011;13927;51.534;11.866;2024-01-15T02:30:41;27.05;;;11.90;;
26181;SDS011;13927;51.534;11.866;2024-01-15T02:33:08;24.38;;;10.80;;
26181;SDS011;13927;51.534;11.866;2024-01-15T02:35:39;19.58;;;10.15;;
26181;SDS011;13927;51.534;11.866;2024-01-15T02:38:05;20.95;;;9.85;;
26181;SDS011;13927;51.534;11.866;2024-01-15T02:40:32;21.27;;;9.65;;
26181;SDS011;13927;51.534;11.866;2024-01-15T02:42:58;18.65;;;9.93;;
26181;SDS011;13927;51.534;11.866;2024-01-15T02:45:23;18.55;;;8.95;;
26181;SDS011;13927;51.534;11.866;2024-01-15T02:47:52;22.45;;;9.00;;
26181;SDS011;13927;51.534;11.866;2024-01-15T02:50:18;19.35;;;9.95;;
26181;SDS011;13927;51.534;11.866;2024-01-15T02:52:44;17.55;;;8.35;;
26181;SDS011;13927;51.534;11.866;2024-01-15T02:55:11;15.63;;;8.55;;
26181;SDS011;13927;51.534;11.866;2024-01-15T02:57:36;16.83;;;8.05;;
26181;SDS011;13927;51.534;11.866;2024-01-15T03:00:02;18.75;;;8.73;;
26181;SDS011;13927;51.534;11.866;2024-01-15T03:02:28;17.45;;;8.48;;
26181;SDS011;13927;51.534;11.866;2024-01-15T03:04:56;16.30;;;8.52;;
26181;SDS011;13927;51.534;11.866;2024-01-15T03:07:23;15.65;;;8.88;;
26181;SDS011;13927;51.534;11.866;2024-01-15T03:09:49;15.93;;;8.05;;
26181;SDS011;13927;51.534;11.866;2024-01-15T03:12:15;15.02;;;7.65;;
26181;SDS011;13927;51.534;11.866;2024-01-15T03:14:41;16.77;;;8.20;;
26181;SDS011;13927;51.534;11.866;2024-01-15T03:17:07;16.95;;;8.32;;
26181;SDS011;13927;51.534;11.866;2024-01-15T03:19:35;16.48;;;7.85;;
26181;SDS011;13927;51.534;11.866;2024-01-15T03:22:01;14.68;;;7.35;;
26181;SDS011;13927;51.534;11.866;2024-01-15T03:24:28;17.60;;;8.07;;
26181;SDS011;13927;51.534;11.866;2024-01-15T03:26:54;18.10;;;9.05;;
26181;SDS011;13927;51.534;11.866;2024-01-15T03:29:20;15.55;;;7.30;;
26181;SDS011;13927;51.534;11.866;2024-01-15T03:31:46;14.57;;;6.68;;
26181;SDS011;13927;51.534;11.866;2024-01-15T03:34:12;21.13;;;9.20;;
26181;SDS011;13927;51.534;11.866;2024-01-15T03:36:38;16.83;;;8.32;;
26181;SDS011;13927;51.534;11.866;2024-01-15T03:39:03;17.13;;;7.97;;
26181;SDS011;13927;51.534;11.866;2024-01-15T03:41:29;19.88;;;9.25;;
26181;SDS011;13927;51.534;11.866;2024-01-15T03:43:55;20.73;;;8.18;;
26181;SDS011;13927;51.534;11.866;2024-01-15T03:46:20;16.38;;;7.72;;
26181;SDS011;13927;51.534;11.866;2024-01-15T03:48:46;23.60;;;9.93;;
26181;SDS011;13927;51.534;11.866;2024-01-15T03:51:12;18.17;;;8.93;;
26181;SDS011;13927;51.534;11.866;2024-01-15T03:53:38;19.95;;;9.45;;
26181;SDS011;13927;51.534;11.866;2024-01-15T03:56:04;22.63;;;9.45;;
26181;SDS011;13927;51.534;11.866;2024-01-15T03:58:30;18.77;;;9.45;;
26181;SDS011;13927;51.534;11.866;2024-01-15T04:00:55;19.52;;;8.82;;
26181;SDS011;13927;51.534;11.866;2024-01-15T04:03:21;16.08;;;8.90;;
26181;SDS011;13927;51.534;11.866;2024-01-15T04:05:47;19.80;;;8.63;;
26181;SDS011;13927;51.534;11.866;2024-01-15T04:08:12;18.80;;;8.55;;
26181;SDS011;13927;51.534;11.866;2024-01-15T04:10:38;18.67;;;8.60;;
26181;SDS011;13927;51.534;11.866;2024-01-15T04:13:04;18.83;;;8.45;;
26181;SDS011;13927;51.534;11.866;2024-01-15T04:15:29;14.90;;;7.53;;
26181;SDS011;13927;51.534;11.866;2024-01-15T04:17:55;15.98;;;7.68;;
26181;SDS011;13927;51.534;11.866;2024-01-15T04:20:21;12.93;;;6.88;;
26181;SDS011;13927;51.534;11.866;2024-01-15T04:22:47;13.50;;;6.57;;
26181;SDS011;13927;51.534;11.866;2024-01-15T04:25:13;15.95;;;6.28;;
26181;SDS011;13927;51.534;11.866;2024-01-15T04:27:38;19.80;;;8.65;;
26181;SDS011;13927;51.534;11.866;2024-01-15T04:30:04;13.15;;;6.40;;
26181;SDS011;13927;51.534;11.866;2024-01-15T04:32:31;12.88;;;5.93;;
26181;SDS011;13927;51.534;11.866;2024-01-15T04:34:57;10.38;;;5.88;;
26181;SDS011;13927;51.534;11.866;2024-01-15T04:37:22;10.35;;;5.53;;
26181;SDS011;13927;51.534;11.866;2024-01-15T04:39:48;11.35;;;5.38;;
26181;SDS011;13927;51.534;11.866;2024-01-15T04:42:14;14.52;;;7.13;;
26181;SDS011;13927;51.534;11.866;2024-01-15T04:44:39;10.95;;;6.63;;
26181;SDS011;13927;51.534;11.866;2024-01-15T04:47:05;13.80;;;6.57;;
26181;SDS011;13927;51.534;11.866;2024-01-15T04:49:31;12.35;;;6.05;;
26181;SDS011;13927;51.534;11.866;2024-01-15T04:51:56;13.30;;;6.45;;
26181;SDS011;13927;51.534;11.866;2024-01-15T04:54:22;13.07;;;6.68;;
26181;SDS011;13927;51.534;11.866;2024-01-15T04:56:48;12.88;;;6.10;;
26181;SDS011;13927;51.534;11.866;2024-01-15T04:59:13;14.35;;;6.35;;
26181;SDS011;13927;51.534;11.866;2024-01-15T05:01:39;11.45;;;6.25;;
26181;SDS011;13927;51.534;11.866;2024-01-15T05:04:05;11.95;;;6.55;;
26181;SDS011;13927;51.534;11.866;2024-01-15T05:06:31;10.68;;;5.47;;
26181;SDS011;13927;51.534;11.866;2024-01-15T05:08:57;11.43;;;5.47;;
26181;SDS011;13927;51.534;11.866;2024-01-15T05:11:22;13.07;;;5.78;;
26181;SDS011;13927;51.534;11.866;2024-01-15T05:13:48;11.75;;;6.10;;
26181;SDS011;13927;51.534;11.866;2024-01-15T05:16:14;12.50;;;5.60;;
26181;SDS011;13927;51.534;11.866;2024-01-15T05:18:39;12.60;;;5.57;;
26181;SDS011;13927;51.534;11.866;2024-01-15T05:21:05;14.35;;;6.28;;
26181;SDS011;13927;51.534;11.866;2024-01-15T05:23:31;10.82;;;4.95;;
26181;SDS011;13927;51.534;11.866;2024-01-15T05:25:57;12.32;;;4.72;;
26181;SDS011;13927;51.534;11.866;2024-01-15T05:28:23;9.25;;;4.55;;
26181;SDS011;13927;51.534;11.866;2024-01-15T05:30:48;12.57;;;5.07;;
26181;SDS011;13927;51.534;11.866;2024-01-15T05:33:15;10.48;;;5.35;;
26181;SDS011;13927;51.534;11.866;2024-01-15T05:35:41;9.52;;;4.20;;
26181;SDS011;13927;51.534;11.866;2024-01-15T05:38:07;7.90;;;4.85;;
26181;SDS011;13927;51.534;11.866;2024-01-15T05:40:33;7.88;;;5.28;;
26181;SDS011;13927;51.534;11.866;2024-01-15T05:42:59;12.05;;;5.35;;
26181;SDS011;13927;51.534;11.866;2024-01-15T05:45:28;9.90;;;4.72;;
26181;SDS011;13927;51.534;11.866;2024-01-15T05:47:55;8.43;;;4.63;;
26181;SDS011;13927;51.534;11.866;2024-01-15T05:50:22;10.98;;;4.93;;
26181;SDS011;13927;51.534;11.866;2024-01-15T05:52:48;9.20;;;4.38;;
26181;SDS011;13927;51.534;11.866;2024-01-15T05:55:13;10.93;;;4.82;;
26181;SDS011;13927;51.534;11.866;2024-01-15T05:57:39;10.73;;;4.78;;
26181;SDS011;13927;51.534;11.866;2024-01-15T06:00:05;9.20;;;4.47;;
26181;SDS011;13927;51.534;11.866;2024-01-15T06:02:31;10.48;;;4.68;;
26181;SDS011;13927;51.534;11.866;2024-01-15T06:04:57;8.75;;;4.40;;
26181;SDS011;13927;51.534;11.866;2024-01-15T06:07:23;11.23;;;4.45;;
26181;SDS011;13927;51.534;11.866;2024-01-15T06:09:49;9.35;;;4.70;;
26181;SDS011;13927;51.534;11.866;2024-01-15T06:12:14;8.07;;;5.20;;
26181;SDS011;13927;51.534;11.866;2024-01-15T06:14:40;9.98;;;4.50;;
26181;SDS011;13927;51.534;11.866;2024-01-15T06:17:07;12.68;;;5.00;;
26181;SDS011;13927;51.534;11.866;2024-01-15T06:19:33;10.45;;;4.45;;
26181;SDS011;13927;51.534;11.866;2024-01-15T06:21:59;9.13;;;4.65;;
26181;SDS011;13927;51.534;11.866;2024-01-15T06:24:24;11.13;;;5.05;;
26181;SDS011;13927;51.534;11.866;2024-01-15T06:26:50;8.07;;;4.53;;
26181;SDS011;13927;51.534;11.866;2024-01-15T06:29:16;8.95;;;5.15;;
26181;SDS011;13927;51.534;11.866;2024-01-15T06:31:41;12.30;;;5.32;;
26181;SDS011;13927;51.534;11.866;2024-01-15T06:34:07;11.18;;;5.15;;
26181;SDS011;13927;51.534;11.866;2024-01-15T06:36:33;11.82;;;4.93;;
26181;SDS011;13927;51.534;11.866;2024-01-15T06:38:59;10.02;;;4.90;;
26181;SDS011;13927;51.534;11.866;2024-01-15T06:41:24;9.20;;;4.03;;
26181;SDS011;13927;51.534;11.866;2024-01-15T06:43:50;9.75;;;5.70;;
26181;SDS011;13927;51.534;11.866;2024-01-15T06:46:19;11.88;;;5.20;;
26181;SDS011;13927;51.534;11.866;2024-01-15T06:48:46;8.02;;;5.10;;
26181;SDS011;13927;51.534;11.866;2024-01-15T06:51:12;12.07;;;5.95;;
26181;SDS011;13927;51.534;11.866;2024-01-15T06:53:38;11.70;;;5.15;;
26181;SDS011;13927;51.534;11.866;2024-01-15T06:56:03;10.18;;;5.55;;
26181;SDS011;13927;51.534;11.866;2024-01-15T06:58:32;10.07;;;5.05;;
26181;SDS011;13927;51.534;11.866;2024-01-15T07:00:58;9.93;;;4.20;;
26181;SDS011;13927;51.534;11.866;2024-01-15T07:03:24;15.15;;;5.18;;
26181;SDS011;13927;51.534;11.866;2024-01-15T07:05:50;9.82;;;4.68;;
26181;SDS011;13927;51.534;11.866;2024-01-15T07:08:16;7.78;;;5.13;;
26181;SDS011;13927;51.534;11.866;2024-01-15T07:10:41;10.10;;;3.63;;
26181;SDS011;13927;51.534;11.866;2024-01-15T07:13:07;8.18;;;3.88;;
26181;SDS011;13927;51.534;11.866;2024-01-15T07:15:33;9.70;;;5.00;;
26181;SDS011;13927;51.534;11.866;2024-01-15T07:17:59;9.43;;;4.57;;
26181;SDS011;13927;51.534;11.866;2024-01-15T07:20:25;8.75;;;4.80;;
26181;SDS011;13927;51.534;11.866;2024-01-15T07:22:51;7.43;;;4.75;;
26181;SDS011;13927;51.534;11.866;2024-01-15T07:25:16;10.23;;;5.60;;
26181;SDS011;13927;51.534;11.866;2024-01-15T07:27:42;10.70;;;4.07;;
26181;SDS011;13927;51.534;11.866;2024-01-15T07:30:10;10.38;;;5.15;;
26181;SDS011;13927;51.534;11.866;2024-01-15T07:32:37;10.57;;;5.25;;
26181;SDS011;13927;51.534;11.866;2024-01-15T07:35:03;11.70;;;5.65;;
26181;SDS011;13927;51.534;11.866;2024-01-15T07:37:30;13.50;;;5.20;;
26181;SDS011;13927;51.534;11.866;2024-01-15T07:39:56;11.52;;;5.20;;
26181;SDS011;13927;51.534;11.866;2024-01-15T07:42:21;8.95;;;4.38;;
26181;SDS011;13927;51.534;11.866;2024-01-15T07:44:47;9.02;;;4.00;;
26181;SDS011;13927;51.534;11.866;2024-01-15T07:47:13;8.52;;;4.65;;
26181;SDS011;13927;51.534;11.866;2024-01-15T07:49:38;12.75;;;4.75;;
26181;SDS011;13927;51.534;11.866;2024-01-15T07:52:04;5.38;;;3.13;;
26181;SDS011;13927;51.534;11.866;2024-01-15T07:54:31;8.32;;;3.67;;
26181;SDS011;13927;51.534;11.866;2024-01-15T07:56:57;11.50;;;4.60;;
26181;SDS011;13927;51.534;11.866;2024-01-15T07:59:28;9.15;;;4.85;;
26181;SDS011;13927;51.534;11.866;2024-01-15T08:01:54;10.52;;;4.65;;
26181;SDS011;13927;51.534;11.866;2024-01-15T08:04:20;11.32;;;4.28;;
26181;SDS011;13927;51.534;11.866;2024-01-15T08:06:47;10.73;;;4.13;;
26181;SDS011;13927;51.534;11.866;2024-01-15T08:09:13;7.55;;;3.47;;
26181;SDS011;13927;51.534;11.866;2024-01-15T08:11:39;11.32;;;5.00;;
26181;SDS011;13927;51.534;11.866;2024-01-15T08:14:06;9.65;;;4.18;;
26181;SDS011;13927;51.534;11.866;2024-01-15T08:16:32;8.25;;;3.60;;
26181;SDS011;13927;51.534;11.866;2024-01-15T08:18:58;9.30;;;4.72;;
26181;SDS011;13927;51.534;11.866;2024-01-15T08:21:24;8.38;;;4.63;;
26181;SDS011;13927;51.534;11.866;2024-01-15T08:23:50;6.72;;;4.22;;
26181;SDS011;13927;51.534;11.866;2024-01-15T08:26:17;8.50;;;4.90;;
26181;SDS011;13927;51.534;11.866;2024-01-15T08:28:42;9.30;;;4.50;;
26181;SDS011;13927;51.534;11.866;2024-01-15T08:31:08;8.55;;;4.90;;
26181;SDS011;13927;51.534;11.866;2024-01-15T08:33:34;8.55;;;4.43;;
26181;SDS011;13927;51.534;11.866;2024-01-15T08:36:01;8.77;;;4.68;;
26181;SDS011;13927;51.534;11.866;2024-01-15T08:38:27;10.00;;;4.88;;
26181;SDS011;13927;51.534;11.866;2024-01-15T08:40:53;11.07;;;4.72;;
26181;SDS011;13927;51.534;11.866;2024-01-15T08:43:21;9.38;;;4.25;;
26181;SDS011;13927;51.534;11.866;2024-01-15T08:45:47;8.15;;;4.57;;
26181;SDS011;13927;51.534;11.866;2024-01-15T08:48:13;7.40;;;4.20;;
26181;SDS011;13927;51.534;11.866;2024-01-15T08:50:39;10.70;;;4.75;;
26181;SDS011;13927;51.534;11.866;2024-01-15T08:53:04;7.72;;;3.92;;
26181;SDS011;13927;51.534;11.866;2024-01-15T08:55:30;11.18;;;4.57;;
26181;SDS011;13927;51.534;11.866;2024-01-15T08:57:57;7.47;;;4.18;;
26181;SDS011;13927;51.534;11.866;2024-01-15T09:00:23;10.27;;;4.85;;
26181;SDS011;13927;51.534;11.866;2024-01-15T09:02:49;7.45;;;4.22;;
26181;SDS011;13927;51.534;11.866;2024-01-15T09:05:15;7.22;;;3.47;;
26181;SDS011;13927;51.534;11.866;2024-01-15T09:07:41;6.93;;;4.05;;
26181;SDS011;13927;51.534;11.866;2024-01-15T09:10:07;8.15;;;4.20;;
26181;SDS011;13927;51.534;11.866;2024-01-15T09:12:33;7.97;;;4.10;;
26181;SDS011;13927;51.534;11.866;2024-01-15T09:14:59;9.40;;;3.95;;
26181;SDS011;13927;51.534;11.866;2024-01-15T09:17:25;7.97;;;3.95;;
26181;SDS011;13927;51.534;11.866;2024-01-15T09:19:53;10.15;;;3.85;;
26181;SDS011;13927;51.534;11.866;2024-01-15T09:22:19;9.18;;;3.67;;
26181;SDS011;13927;51.534;11.866;2024-01-15T09:24:45;10.88;;;4.70;;
26181;SDS011;13927;51.534;11.866;2024-01-15T09:27:11;7.53;;;3.85;;
26181;SDS011;13927;51.534;11.866;2024-01-15T09:29:37;9.15;;;4.28;;
26181;SDS011;13927;51.534;11.866;2024-01-15T09:32:05;8.55;;;4.10;;
26181;SDS011;13927;51.534;11.866;2024-01-15T09:34:32;9.02;;;4.47;;
26181;SDS011;13927;51.534;11.866;2024-01-15T09:36:59;11.63;;;3.85;;
26181;SDS011;13927;51.534;11.866;2024-01-15T09:39:26;9.27;;;4.47;;
26181;SDS011;13927;51.534;11.866;2024-01-15T09:41:53;9.43;;;3.50;;
26181;SDS011;13927;51.534;11.866;2024-01-15T09:44:20;7.15;;;3.38;;
26181;SDS011;13927;51.534;11.866;2024-01-15T09:46:47;6.45;;;3.28;;
26181;SDS011;13927;51.534;11.866;2024-01-15T09:49:15;8.57;;;3.97;;
26181;SDS011;13927;51.534;11.866;2024-01-15T09:51:42;6.10;;;3.28;;
26181;SDS011;13927;51.534;11.866;2024-01-15T09:54:10;7.40;;;3.72;;
26181;SDS011;13927;51.534;11.866;2024-01-15T09:56:38;5.70;;;3.45;;
26181;SDS011;13927;51.534;11.866;2024-01-15T09:59:05;6.60;;;3.75;;
26181;SDS011;13927;51.534;11.866;2024-01-15T10:01:31;6.43;;;3.83;;
26181;SDS011;13927;51.534;11.866;2024-01-15T10:03:58;6.70;;;3.15;;
26181;SDS011;13927;51.534;11.866;2024-01-15T10:06:24;7.75;;;3.65;;
26181;SDS011;13927;51.534;11.866;2024-01-15T10:08:56;7.13;;;3.50;;
26181;SDS011;13927;51.534;11.866;2024-01-15T10:11:23;8.35;;;3.78;;
26181;SDS011;13927;51.534;11.866;2024-01-15T10:13:50;7.75;;;3.90;;
26181;SDS011;13927;51.534;11.866;2024-01-15T10:16:18;7.03;;;3.40;;
26181;SDS011;13927;51.534;11.866;2024-01-15T10:18:45;11.52;;;3.80;;
26181;SDS011;13927;51.534;11.866;2024-01-15T10:21:11;7.05;;;3.63;;
26181;SDS011;13927;51.534;11.866;2024-01-15T10:23:37;7.70;;;3.70;;
26181;SDS011;13927;51.534;11.866;2024-01-15T10:26:03;8.02;;;3.45;;
26181;SDS011;13927;51.534;11.866;2024-01-15T10:28:29;9.30;;;3.85;;
26181;SDS011;13927;51.534;11.866;2024-01-15T10:30:57;4.78;;;3.20;;
26181;SDS011;13927;51.534;11.866;2024-01-15T10:33:25;7.00;;;3.60;;
26181;SDS011;13927;51.534;11.866;2024-01-15T10:35:56;4.82;;;2.95;;
26181;SDS011;13927;51.534;11.866;2024-01-15T10:38:23;5.97;;;2.95;;
26181;SDS011;13927;51.534;11.866;2024-01-15T10:40:51;5.18;;;2.90;;
26181;SDS011;13927;51.534;11.866;2024-01-15T10:43:21;8.43;;;3.08;;
26181;SDS011;13927;51.534;11.866;2024-01-15T10:45:50;9.50;;;3.58;;
26181;SDS011;13927;51.534;11.866;2024-01-15T10:48:16;8.50;;;3.58;;
26181;SDS011;13927;51.534;11.866;2024-01-15T10:50:44;7.45;;;3.00;;
26181;SDS011;13927;51.534;11.866;2024-01-15T10:53:12;6.55;;;2.90;;
26181;SDS011;13927;51.534;11.866;2024-01-15T10:55:42;9.63;;;3.35;;
26181;SDS011;13927;51.534;11.866;2024-01-15T10:58:09;5.97;;;2.58;;
26181;SDS011;13927;51.534;11.866;2024-01-15T11:00:35;10.93;;;4.20;;
26181;SDS011;13927;51.534;11.866;2024-01-15T11:03:05;7.28;;;3.25;;
26181;SDS011;13927;51.534;11.866;2024-01-15T11:05:39;8.98;;;3.40;;
26181;SDS011;13927;51.534;11.866;2024-01-15T11:08:08;8.70;;;3.33;;
26181;SDS011;13927;51.534;11.866;2024-01-15T11:13:15;10.25;;;4.13;;
26181;SDS011;13927;51.534;11.866;2024-01-15T11:16:06;7.07;;;3.20;;
26181;SDS011;13927;51.534;11.866;2024-01-15T11:18:37;8.45;;;3.72;;
26181;SDS011;13927;51.534;11.866;2024-01-15T11:23:45;4.80;;;2.67;;
26181;SDS011;13927;51.534;11.866;2024-01-15T11:29:03;6.13;;;2.67;;
26181;SDS011;13927;51.534;11.866;2024-01-15T11:32:14;5.38;;;3.45;;
26181;SDS011;13927;51.534;11.866;2024-01-15T11:34:21;7.68;;;3.65;;
26181;SDS011;13927;51.534;11.866;2024-01-15T11:37:26;6.10;;;2.90;;
26181;SDS011;13927;51.534;11.866;2024-01-15T11:39:55;5.38;;;2.03;;
26181;SDS011;13927;51.534;11.866;2024-01-15T11:42:36;5.25;;;2.47;;
26181;SDS011;13927;51.534;11.866;2024-01-15T11:45:03;6.60;;;2.47;;
26181;SDS011;13927;51.534;11.866;2024-01-15T11:50:35;6.60;;;2.80;;
26181;SDS011;13927;51.534;11.866;2024-01-15T11:53:27;4.03;;;2.22;;
26181;SDS011;13927;51.534;11.866;2024-01-15T11:56:16;4.78;;;2.25;;
26181;SDS011;13927;51.534;11.866;2024-01-15T11:58:43;5.90;;;3.20;;
26181;SDS011;13927;51.534;11.866;2024-01-15T12:01:10;9.20;;;3.10;;
26181;SDS011;13927;51.534;11.866;2024-01-15T12:03:36;7.40;;;3.33;;
26181;SDS011;13927;51.534;11.866;2024-01-15T12:06:05;5.07;;;2.50;;
26181;SDS011;13927;51.534;11.866;2024-01-15T12:08:32;4.88;;;2.53;;
26181;SDS011;13927;51.534;11.866;2024-01-15T12:10:58;5.05;;;2.90;;
26181;SDS011;13927;51.534;11.866;2024-01-15T12:13:24;6.55;;;2.90;;
26181;SDS011;13927;51.534;11.866;2024-01-15T12:15:50;7.72;;;3.75;;
26181;SDS011;13927;51.534;11.866;2024-01-15T12:18:17;6.03;;;3.35;;
26181;SDS011;13927;51.534;11.866;2024-01-15T12:20:44;6.05;;;3.25;;
26181;SDS011;13927;51.534;11.866;2024-01-15T12:23:14;8.63;;;4.10;;
26181;SDS011;13927;51.534;11.866;2024-01-15T12:25:40;4.63;;;2.78;;
26181;SDS011;13927;51.534;11.866;2024-01-15T12:28:07;5.55;;;3.35;;
26181;SDS011;13927;51.534;11.866;2024-01-15T12:30:33;6.65;;;3.28;;
26181;SDS011;13927;51.534;11.866;2024-01-15T12:33:01;8.52;;;2.95;;
26181;SDS011;13927;51.534;11.866;2024-01-15T12:35:29;6.13;;;2.55;;
26181;SDS011;13927;51.534;11.866;2024-01-15T12:37:55;4.60;;;2.53;;
26181;SDS011;13927;51.534;11.866;2024-01-15T12:40:21;4.63;;;2.25;;
26181;SDS011;13927;51.534;11.866;2024-01-15T12:42:48;7.22;;;2.65;;
26181;SDS011;13927;51.534;11.866;2024-01-15T12:45:14;5.30;;;2.63;;
26181;SDS011;13927;51.534;11.866;2024-01-15T12:47:41;6.07;;;1.88;;
26181;SDS011;13927;51.534;11.866;2024-01-15T12:50:11;4.70;;;1.85;;
26181;SDS011;13927;51.534;11.866;2024-01-15T12:52:39;5.22;;;1.83;;
26181;SDS011;13927;51.534;11.866;2024-01-15T12:55:07;4.55;;;2.00;;
26181;SDS011;13927;51.534;11.866;2024-01-15T12:57:34;3.70;;;2.13;;
26181;SDS011;13927;51.534;11.866;2024-01-15T13:00:02;3.28;;;1.75;;
26181;SDS011;13927;51.534;11.866;2024-01-15T13:02:33;3.13;;;1.85;;
26181;SDS011;13927;51.534;11.866;2024-01-15T13:04:59;3.90;;;1.83;;
26181;SDS011;13927;51.534;11.866;2024-01-15T13:07:25;6.28;;;1.85;;
26181;SDS011;13927;51.534;11.866;2024-01-15T13:09:52;5.15;;;2.35;;
26181;SDS011;13927;51.534;11.866;2024-01-15T13:12:18;4.53;;;2.08;;
26181;SDS011;13927;51.534;11.866;2024-01-15T13:14:45;3.28;;;1.77;;
26181;SDS011;13927;51.534;11.866;2024-01-15T13:17:12;4.32;;;1.70;;
26181;SDS011;13927;51.534;11.866;2024-01-15T13:19:39;4.55;;;1.88;;
26181;SDS011;13927;51.534;11.866;2024-01-15T13:22:05;3.38;;;1.73;;
26181;SDS011;13927;51.534;11.866;2024-01-15T13:24:34;4.30;;;1.73;;
26181;SDS011;13927;51.534;11.866;2024-01-15T13:27:01;4.63;;;1.92;;
26181;SDS011;13927;51.534;11.866;2024-01-15T13:29:29;5.75;;;2.13;;
26181;SDS011;13927;51.534;11.866;2024-01-15T13:31:55;4.30;;;1.90;;
26181;SDS011;13927;51.534;11.866;2024-01-15T13:34:21;2.88;;;2.05;;
26181;SDS011;13927;51.534;11.866;2024-01-15T13:36:47;6.47;;;2.80;;
26181;SDS011;13927;51.534;11.866;2024-01-15T13:39:14;4.70;;;1.95;;
26181;SDS011;13927;51.534;11.866;2024-01-15T13:41:44;3.83;;;2.03;;
26181;SDS011;13927;51.534;11.866;2024-01-15T13:44:11;3.92;;;2.28;;
26181;SDS011;13927;51.534;11.866;2024-01-15T13:46:37;3.65;;;2.03;;
26181;SDS011;13927;51.534;11.866;2024-01-15T13:49:03;5.80;;;2.20;;
26181;SDS011;13927;51.534;11.866;2024-01-15T13:51:30;2.22;;;1.60;;
26181;SDS011;13927;51.534;11.866;2024-01-15T13:53:57;5.63;;;1.83;;
26181;SDS011;13927;51.534;11.866;2024-01-15T13:56:23;3.75;;;2.05;;
26181;SDS011;13927;51.534;11.866;2024-01-15T13:58:49;3.47;;;1.85;;
26181;SDS011;13927;51.534;11.866;2024-01-15T14:01:15;4.40;;;2.30;;
26181;SDS011;13927;51.534;11.866;2024-01-15T14:03:42;5.88;;;1.98;;
26181;SDS011;13927;51.534;11.866;2024-01-15T14:06:08;6.28;;;2.25;;
26181;SDS011;13927;51.534;11.866;2024-01-15T14:08:35;4.70;;;2.05;;
26181;SDS011;13927;51.534;11.866;2024-01-15T14:11:02;4.18;;;2.15;;
26181;SDS011;13927;51.534;11.866;2024-01-15T14:13:30;7.10;;;2.05;;
26181;SDS011;13927;51.534;11.866;2024-01-15T14:15:57;4.25;;;1.90;;
26181;SDS011;13927;51.534;11.866;2024-01-15T14:18:23;3.83;;;1.77;;
26181;SDS011;13927;51.534;11.866;2024-01-15T14:20:48;3.03;;;1.48;;
26181;SDS011;13927;51.534;11.866;2024-01-15T14:23:14;2.85;;;1.50;;
26181;SDS011;13927;51.534;11.866;2024-01-15T14:25:40;2.63;;;1.40;;
26181;SDS011;13927;51.534;11.866;2024-01-15T14:28:06;2.25;;;1.58;;
26181;SDS011;13927;51.534;11.866;2024-01-15T14:30:31;3.47;;;1.80;;
26181;SDS011;13927;51.534;11.866;2024-01-15T14:32:57;4.53;;;1.70;;
26181;SDS011;13927;51.534;11.866;2024-01-15T14:35:23;2.38;;;1.55;;
26181;SDS011;13927;51.534;11.866;2024-01-15T14:37:49;4.85;;;1.38;;